createdAt,value
2022-10-29T00:29:22.675Z,0
2022-10-29T00:30:03.160Z,0
2022-10-29T00:30:43.645Z,0
2022-10-29T00:36:07.511Z,0
2022-10-29T00:36:47.967Z,0
2022-10-29T00:37:28.481Z,0
2022-10-29T00:38:08.931Z,0
2022-10-29T00:38:49.424Z,0
2022-10-29T00:39:29.906Z,0
2022-10-29T00:40:10.354Z,0
2022-10-29T00:40:50.866Z,0
2022-10-29T00:41:31.321Z,0
2022-10-29T00:42:11.759Z,0
2022-10-29T00:50:17.640Z,0
2022-10-29T00:50:58.116Z,0
2022-10-29T00:51:38.620Z,0
2022-10-29T00:52:19.138Z,0
2022-10-29T00:52:59.640Z,0
2022-10-29T00:53:40.115Z,0
2022-10-29T00:54:20.600Z,0
2022-10-29T00:55:01.116Z,0
2022-10-29T00:55:41.602Z,0
2022-10-29T00:56:22.100Z,0
2022-10-29T01:03:47.512Z,0
2022-10-29T01:04:28.030Z,0
2022-10-29T01:05:08.477Z,0
2022-10-29T01:05:48.946Z,0
2022-10-29T01:06:29.451Z,0
2022-10-29T01:07:09.944Z,0
2022-10-29T01:07:50.370Z,0
2022-10-29T01:08:30.846Z,0
2022-10-29T01:09:11.327Z,0
2022-10-29T01:09:51.817Z,0
2022-10-29T01:10:32.292Z,0
2022-10-29T01:17:57.835Z,0
2022-10-29T01:18:38.091Z,0
2022-10-29T01:19:18.534Z,0
2022-10-29T01:19:59.023Z,0
2022-10-29T01:20:39.442Z,0
2022-10-29T01:21:19.940Z,0
2022-10-29T01:22:00.432Z,0
2022-10-29T01:22:40.991Z,0
2022-10-29T01:23:21.393Z,0
2022-10-29T01:24:01.875Z,0
2022-10-29T01:32:39.441Z,0
2022-10-29T01:33:19.905Z,0
2022-10-29T01:34:00.500Z,0
2022-10-29T01:38:04.264Z,0
2022-10-29T01:39:25.210Z,0
2022-10-29T01:40:05.685Z,0
2022-10-29T01:40:46.214Z,0
2022-10-29T01:41:26.745Z,0
2022-10-29T01:42:07.231Z,0
2022-10-29T01:42:47.717Z,0
2022-10-29T01:44:08.666Z,0
2022-10-29T01:51:34.059Z,0
2022-10-29T01:52:14.578Z,0
2022-10-29T01:52:55.146Z,0
2022-10-29T01:53:35.576Z,0
2022-10-29T01:54:16.027Z,0
2022-10-29T01:54:56.566Z,0
2022-10-29T01:55:37.007Z,0
2022-10-29T01:56:17.504Z,0
2022-10-29T01:56:57.987Z,0
2022-10-29T01:57:38.506Z,0
2022-10-29T01:58:18.999Z,0
2022-10-29T02:05:44.335Z,0
2022-10-29T02:06:24.811Z,0
2022-10-29T02:07:05.284Z,0
2022-10-29T02:07:45.805Z,0
2022-10-29T02:08:26.333Z,0
2022-10-29T02:09:06.798Z,0
2022-10-29T02:09:47.310Z,0
2022-10-29T02:10:27.815Z,0
2022-10-29T02:11:08.266Z,0
2022-10-29T02:11:48.799Z,0
2022-10-29T02:16:13.975Z,0
2022-10-29T02:17:04.252Z,0
2022-10-29T02:20:33.756Z,0
2022-10-29T02:21:24.266Z,0
2022-10-29T02:22:12.310Z,0
2022-10-29T02:23:02.845Z,0
2022-10-29T02:23:54.329Z,0
2022-10-29T02:27:18.533Z,0
2022-10-29T02:27:59.061Z,0
2022-10-29T02:28:39.581Z,0
2022-10-29T02:34:03.361Z,0
2022-10-29T02:34:43.845Z,0
2022-10-29T02:35:24.339Z,0
2022-10-29T02:36:04.892Z,0
2022-10-29T02:36:45.385Z,0
2022-10-29T02:37:25.804Z,0
2022-10-29T02:38:06.266Z,0
2022-10-29T02:38:46.787Z,0
2022-10-29T02:40:07.697Z,0
2022-10-29T02:40:48.166Z,0
2022-10-29T02:48:13.480Z,0
2022-10-29T02:48:53.983Z,0
2022-10-29T02:49:34.478Z,0
2022-10-29T02:50:14.969Z,0
2022-10-29T02:50:55.434Z,0
2022-10-29T02:51:35.938Z,0
2022-10-29T02:52:16.388Z,0
2022-10-29T02:52:56.942Z,0
2022-10-29T02:53:37.401Z,0
2022-10-29T02:54:17.940Z,0
2022-10-29T03:01:43.435Z,0
2022-10-29T03:02:23.842Z,0
2022-10-29T03:03:04.261Z,0
2022-10-29T03:03:44.747Z,0
2022-10-29T03:04:25.210Z,0
2022-10-29T03:05:05.760Z,0
2022-10-29T03:05:48.050Z,0
2022-10-29T03:06:26.682Z,0
2022-10-29T03:07:47.673Z,0
2022-10-29T03:15:53.538Z,0
2022-10-29T03:16:33.991Z,0
2022-10-29T03:17:14.469Z,0
2022-10-29T03:17:55.193Z,0
2022-10-29T03:18:35.438Z,0
2022-10-29T03:19:15.940Z,0
2022-10-29T03:19:56.421Z,0
2022-10-29T03:20:36.889Z,0
2022-10-29T03:21:17.362Z,0
2022-10-29T03:21:57.872Z,0
2022-10-29T03:29:23.142Z,0
2022-10-29T03:30:03.608Z,0
2022-10-29T03:30:44.065Z,0
2022-10-29T03:31:24.594Z,0
2022-10-29T03:32:04.995Z,0
2022-10-29T03:32:45.501Z,0
2022-10-29T03:33:25.923Z,0
2022-10-29T03:34:06.397Z,0
2022-10-29T03:34:46.893Z,0
2022-10-29T03:35:27.362Z,0
2022-10-29T03:36:07.912Z,0
2022-10-29T03:43:33.185Z,0
2022-10-29T03:44:13.689Z,0
2022-10-29T03:44:54.218Z,0
2022-10-29T03:45:34.683Z,0
2022-10-29T03:46:15.141Z,0
2022-10-29T03:46:55.679Z,0
2022-10-29T03:47:36.121Z,0
2022-10-29T03:48:16.593Z,0
2022-10-29T03:48:57.117Z,0
2022-10-29T03:49:37.565Z,0
2022-10-29T03:50:18.052Z,0
2022-10-29T03:57:43.471Z,0
2022-10-29T03:58:23.957Z,0
2022-10-29T03:59:04.469Z,0
2022-10-29T03:59:45.932Z,0
2022-10-29T04:00:25.373Z,0
2022-10-29T04:01:05.863Z,0
2022-10-29T04:01:46.454Z,0
2022-10-29T04:02:26.955Z,0
2022-10-29T04:03:07.333Z,0
2022-10-29T04:03:47.753Z,0
2022-10-29T04:11:13.112Z,0
2022-10-29T04:11:53.631Z,0
2022-10-29T04:12:34.053Z,0
2022-10-29T04:13:14.539Z,0
2022-10-29T04:13:55.089Z,0
2022-10-29T04:14:36.583Z,0
2022-10-29T04:15:16.089Z,0
2022-10-29T04:15:56.614Z,0
2022-10-29T04:16:37.015Z,0
2022-10-29T04:17:17.570Z,0
2022-10-29T04:17:58.360Z,0
2022-10-29T04:27:49.089Z,0
2022-10-29T04:27:49.121Z,0
2022-10-29T04:28:45.875Z,0
2022-10-29T04:29:26.206Z,0
2022-10-29T04:30:06.790Z,0
2022-10-29T04:30:47.577Z,0
2022-10-29T04:31:27.834Z,0
2022-10-29T04:39:33.567Z,0
2022-10-29T04:40:14.082Z,0
2022-10-29T04:40:54.615Z,0
2022-10-29T04:41:35.084Z,0
2022-10-29T04:42:15.546Z,0
2022-10-29T04:42:56.356Z,0
2022-10-29T04:43:36.572Z,0
2022-10-29T04:44:17.089Z,0
2022-10-29T04:44:57.517Z,0
2022-10-29T04:45:37.992Z,0
2022-10-29T04:53:43.731Z,0
2022-10-29T04:54:24.264Z,0
2022-10-29T04:55:04.756Z,0
2022-10-29T04:55:45.182Z,0
2022-10-29T04:56:25.636Z,0
2022-10-29T04:57:06.106Z,0
2022-10-29T04:57:46.610Z,0
2022-10-29T04:58:27.115Z,0
2022-10-29T04:59:07.614Z,0
2022-10-29T04:59:48.059Z,0
2022-10-29T05:07:13.475Z,0
2022-10-29T05:07:53.949Z,0
2022-10-29T05:08:34.365Z,0
2022-10-29T05:09:14.869Z,0
2022-10-29T05:09:55.366Z,0
2022-10-29T05:11:16.401Z,0
2022-10-29T05:11:56.921Z,0
2022-10-29T05:12:37.471Z,0
2022-10-29T05:13:17.948Z,0
2022-10-29T05:20:43.172Z,0
2022-10-29T05:21:23.638Z,0
2022-10-29T05:22:04.168Z,0
2022-10-29T05:22:44.638Z,0
2022-10-29T05:23:25.079Z,0
2022-10-29T05:24:05.551Z,0
2022-10-29T05:24:46.013Z,0
2022-10-29T05:25:26.546Z,0
2022-10-29T05:26:06.990Z,0
2022-10-29T05:26:47.525Z,0
2022-10-29T05:27:27.990Z,0
2022-10-29T05:34:53.251Z,0
2022-10-29T05:35:33.765Z,0
2022-10-29T05:36:14.295Z,0
2022-10-29T05:36:54.760Z,0
2022-10-29T05:37:35.220Z,0
2022-10-29T05:38:56.271Z,0
2022-10-29T05:39:36.690Z,0
2022-10-29T05:40:17.176Z,0
2022-10-29T05:40:57.724Z,0
2022-10-29T05:49:03.558Z,0
2022-10-29T05:49:43.996Z,0
2022-10-29T05:50:24.472Z,0
2022-10-29T05:51:04.995Z,0
2022-10-29T05:51:45.452Z,0
2022-10-29T05:52:25.878Z,0
2022-10-29T06:31:50.831Z,0
2022-10-29T06:32:31.033Z,0
2022-10-29T06:33:11.533Z,0
2022-10-29T06:33:51.970Z,0
2022-10-29T06:38:35.298Z,5
2022-10-29T06:39:15.772Z,5
2022-10-29T06:39:56.285Z,5
2022-10-29T06:40:36.745Z,5
2022-10-29T06:41:17.268Z,5
2022-10-29T06:41:57.720Z,5
2022-10-29T06:42:38.204Z,5
2022-10-29T06:43:18.682Z,5
2022-10-29T06:43:59.235Z,5
2022-10-29T06:44:39.734Z,5
2022-10-29T06:52:05.113Z,5
2022-10-29T06:52:45.621Z,5
2022-10-29T06:53:26.088Z,5
2022-10-29T06:54:06.597Z,5
2022-10-29T06:54:47.050Z,5
2022-10-29T06:55:27.705Z,5
2022-10-29T06:56:08.165Z,5
2022-10-29T06:56:48.649Z,5
2022-10-29T06:57:29.116Z,5
2022-10-29T06:58:09.585Z,5
2022-10-29T07:05:35.060Z,10
2022-10-29T07:06:15.563Z,10
2022-10-29T07:06:56.024Z,10
2022-10-29T07:07:37.323Z,10
2022-10-29T07:08:16.959Z,10
2022-10-29T07:08:57.436Z,10
2022-10-29T07:09:37.956Z,10
2022-10-29T07:10:18.425Z,10
2022-10-29T07:10:58.914Z,10
2022-10-29T07:11:39.420Z,5
2022-10-29T07:12:19.864Z,5
2022-10-29T07:19:45.327Z,5
2022-10-29T07:20:25.765Z,5
2022-10-29T07:21:06.322Z,5
2022-10-29T07:21:46.802Z,5
2022-10-29T07:22:28.903Z,5
2022-10-29T07:23:08.328Z,5
2022-10-29T07:23:48.234Z,5
2022-10-29T07:24:28.729Z,5
2022-10-29T07:25:09.192Z,10
2022-10-29T07:25:49.681Z,10
2022-10-29T07:33:15.063Z,15
2022-10-29T07:33:55.551Z,15
2022-10-29T07:34:36.586Z,15
2022-10-29T07:35:17.088Z,15
2022-10-29T07:35:57.544Z,15
2022-10-29T07:36:38.030Z,15
2022-10-29T07:37:18.524Z,20
2022-10-29T07:38:01.134Z,20
2022-10-29T07:45:25.341Z,15
2022-10-29T07:46:05.141Z,15
2022-10-29T07:46:45.649Z,15
2022-10-29T07:47:26.072Z,15
2022-10-29T07:48:06.590Z,15
2022-10-29T07:48:47.047Z,10
2022-10-29T07:49:27.666Z,10
2022-10-29T07:50:08.057Z,10
2022-10-29T07:50:48.551Z,10
2022-10-29T07:51:29.012Z,10
2022-10-29T07:52:09.490Z,10
2022-10-29T07:52:50.012Z,15
2022-10-29T07:59:35.201Z,15
2022-10-29T08:00:15.546Z,15
2022-10-29T08:00:56.214Z,15
2022-10-29T08:01:36.874Z,10
2022-10-29T08:02:17.255Z,10
2022-10-29T08:02:58.843Z,10
2022-10-29T08:03:38.542Z,10
2022-10-29T08:04:19.060Z,10
2022-10-29T08:04:59.536Z,10
2022-10-29T08:05:42.341Z,10
2022-10-29T08:12:25.104Z,10
2022-10-29T08:13:05.628Z,10
2022-10-29T08:13:46.122Z,10
2022-10-29T08:14:28.186Z,10
2022-10-29T08:17:41.892Z,10
2022-10-29T08:18:22.340Z,10
2022-10-29T08:19:02.900Z,10
2022-10-29T08:23:46.758Z,10
2022-10-29T08:24:26.975Z,10
2022-10-29T08:25:07.477Z,10
2022-10-29T08:25:47.974Z,15
2022-10-29T08:26:28.603Z,15
2022-10-29T08:27:09.086Z,15
2022-10-29T08:27:49.627Z,15
2022-10-29T08:28:31.831Z,15
2022-10-29T08:29:10.624Z,15
2022-10-29T08:29:51.166Z,15
2022-10-29T08:30:31.602Z,15
2022-10-29T08:37:16.760Z,10
2022-10-29T08:37:57.275Z,10
2022-10-29T08:38:37.749Z,10
2022-10-29T08:39:18.271Z,10
2022-10-29T08:39:58.780Z,10
2022-10-29T08:40:39.287Z,10
2022-10-29T08:41:19.775Z,10
2022-10-29T08:42:00.273Z,10
2022-10-29T08:42:40.827Z,10
2022-10-29T08:43:21.349Z,10
2022-10-29T08:51:26.999Z,15
2022-10-29T08:52:07.501Z,15
2022-10-29T08:52:52.820Z,15
2022-10-29T08:53:32.909Z,15
2022-10-29T08:54:29.616Z,15
2022-10-29T08:54:51.563Z,15
2022-10-29T09:00:56.693Z,25
2022-10-29T09:01:37.512Z,30
2022-10-29T09:02:17.994Z,30
2022-10-29T09:02:58.938Z,35
2022-10-29T09:03:39.044Z,35
2022-10-29T09:04:19.519Z,40
2022-10-29T09:04:59.986Z,40
2022-10-29T09:05:40.467Z,40
2022-10-29T09:06:20.952Z,40
2022-10-29T09:07:01.467Z,40
2022-10-29T09:14:26.809Z,30
2022-10-29T09:15:07.340Z,30
2022-10-29T09:15:48.004Z,30
2022-10-29T09:16:28.533Z,25
2022-10-29T09:17:10.260Z,25
2022-10-29T09:17:49.407Z,25
2022-10-29T09:18:29.925Z,25
2022-10-29T09:19:10.796Z,25
2022-10-29T09:19:51.289Z,25
2022-10-29T09:27:16.958Z,30
2022-10-29T09:27:57.814Z,30
2022-10-29T09:28:37.896Z,30
2022-10-29T09:29:18.413Z,30
2022-10-29T09:29:59.385Z,30
2022-10-29T09:30:39.916Z,30
2022-10-29T09:31:20.374Z,30
2022-10-29T09:32:00.906Z,35
2022-10-29T09:40:07.125Z,30
2022-10-29T09:40:47.528Z,30
2022-10-29T09:41:28.044Z,30
2022-10-29T09:42:08.537Z,30
2022-10-29T09:42:49.029Z,30
2022-10-29T09:43:29.527Z,30
2022-10-29T09:44:10.018Z,35
2022-10-29T09:44:50.582Z,35
2022-10-29T09:45:31.110Z,40
2022-10-29T09:46:11.601Z,40
2022-10-29T09:51:42.866Z,30
2022-10-29T09:52:22.561Z,30
2022-10-29T09:53:03.057Z,30
2022-10-29T09:57:46.876Z,30
2022-10-29T09:58:27.232Z,30
2022-10-29T09:59:07.865Z,25
2022-10-29T09:59:48.427Z,25
2022-10-29T10:00:28.969Z,25
2022-10-29T10:01:09.452Z,25
2022-10-29T10:01:50.034Z,25
2022-10-29T10:02:30.512Z,25
2022-10-29T10:03:11.020Z,25
2022-10-29T10:03:51.488Z,30
2022-10-29T10:09:16.908Z,25
2022-10-29T10:09:57.390Z,25
2022-10-29T10:10:37.867Z,25
2022-10-29T10:11:18.399Z,25
2022-10-29T10:11:58.907Z,25
2022-10-29T10:12:39.370Z,25
2022-10-29T10:13:20.742Z,25
2022-10-29T10:14:00.380Z,25
2022-10-29T10:14:40.898Z,25
2022-10-29T10:15:21.462Z,25
2022-10-29T10:22:46.819Z,30
2022-10-29T10:23:27.374Z,30
2022-10-29T10:24:08.048Z,30
2022-10-29T10:24:48.570Z,30
2022-10-29T10:25:29.186Z,30
2022-10-29T10:26:09.889Z,30
2022-10-29T10:26:50.414Z,30
2022-10-29T10:27:30.883Z,30
2022-10-29T10:28:11.412Z,30
2022-10-29T10:34:56.662Z,25
2022-10-29T10:35:37.323Z,25
2022-10-29T10:36:17.751Z,20
2022-10-29T10:36:58.275Z,20
2022-10-29T10:37:38.815Z,20
2022-10-29T10:38:19.875Z,20
2022-10-29T10:39:00.354Z,20
2022-10-29T10:39:40.873Z,20
2022-10-29T10:40:21.447Z,20
2022-10-29T10:47:06.550Z,20
2022-10-29T10:47:47.024Z,20
2022-10-29T10:52:28.746Z,20
2022-10-29T10:53:09.094Z,20
2022-10-29T10:53:49.503Z,20
2022-10-29T10:59:13.469Z,25
2022-10-29T10:59:54.054Z,25
2022-10-29T11:00:34.515Z,25
2022-10-29T11:01:15.200Z,25
2022-10-29T11:01:55.593Z,25
2022-10-29T11:02:36.074Z,25
2022-10-29T11:03:16.511Z,25
2022-10-29T11:03:56.925Z,25
2022-10-29T11:04:37.425Z,25
2022-10-29T11:05:17.934Z,25
2022-10-29T11:12:43.416Z,25
2022-10-29T11:13:23.890Z,30
2022-10-29T11:14:04.359Z,25
2022-10-29T11:14:44.857Z,30
2022-10-29T11:15:25.412Z,25
2022-10-29T11:16:05.884Z,30
2022-10-29T11:16:46.368Z,30
2022-10-29T11:17:26.905Z,30
2022-10-29T11:18:07.407Z,30
2022-10-29T11:18:47.884Z,30
2022-10-29T11:26:53.733Z,30
2022-10-29T11:27:34.195Z,30
2022-10-29T11:28:14.662Z,30
2022-10-29T11:28:55.137Z,30
2022-10-29T11:29:35.591Z,35
2022-10-29T11:30:16.157Z,35
2022-10-29T11:30:56.601Z,35
2022-10-29T11:31:37.172Z,35
2022-10-29T11:32:17.661Z,35
2022-10-29T11:32:58.467Z,30
2022-10-29T11:40:23.518Z,35
2022-10-29T11:41:04.034Z,40
2022-10-29T11:41:44.556Z,40
2022-10-29T11:42:25.076Z,40
2022-10-29T11:43:07.122Z,35
2022-10-29T11:43:46.031Z,35
2022-10-29T11:44:26.539Z,30
2022-10-29T11:45:07.000Z,30
2022-10-29T11:45:47.519Z,30
2022-10-29T11:46:27.991Z,30
2022-10-29T12:32:34.824Z,25
2022-10-29T12:33:15.626Z,25
2022-10-29T12:33:56.063Z,25
2022-10-29T12:34:36.597Z,25
2022-10-29T12:38:39.570Z,25
2022-10-29T12:39:20.132Z,25
2022-10-29T12:40:00.636Z,20
2022-10-29T12:40:41.174Z,20
2022-10-29T12:41:21.762Z,20
2022-10-29T12:42:02.288Z,20
2022-10-29T12:42:42.759Z,20
2022-10-29T12:43:23.272Z,20
2022-10-29T12:44:03.774Z,20
2022-10-29T12:44:45.049Z,20
2022-10-29T12:52:09.694Z,20
2022-10-29T12:52:50.193Z,20
2022-10-29T12:53:30.681Z,20
2022-10-29T12:54:11.181Z,20
2022-10-29T12:54:51.678Z,20
2022-10-29T12:55:32.184Z,20
2022-10-29T12:56:15.713Z,20
2022-10-29T12:56:53.214Z,20
2022-10-29T12:58:14.156Z,20
2022-10-29T13:05:39.847Z,20
2022-10-29T13:06:20.292Z,20
2022-10-29T13:07:00.817Z,20
2022-10-29T13:07:41.318Z,20
2022-10-29T13:08:21.806Z,20
2022-10-29T13:09:02.585Z,20
2022-10-29T13:09:47.256Z,20
2022-10-29T13:10:23.646Z,20
2022-10-29T13:11:04.112Z,20
2022-10-29T13:18:29.587Z,20
2022-10-29T13:19:10.066Z,20
2022-10-29T13:19:50.510Z,20
2022-10-29T13:20:31.127Z,25
2022-10-29T13:21:11.533Z,25
2022-10-29T13:21:52.041Z,25
2022-10-29T13:22:32.575Z,25
2022-10-29T13:23:13.024Z,25
2022-10-29T13:23:53.690Z,25
2022-10-29T13:24:34.172Z,25
2022-10-29T13:31:19.645Z,25
2022-10-29T13:32:04.480Z,25
2022-10-29T13:32:40.670Z,20
2022-10-29T13:33:21.176Z,20
2022-10-29T13:34:01.730Z,20
2022-10-29T13:34:42.342Z,20
2022-10-29T13:35:22.773Z,20
2022-10-29T13:36:03.242Z,20
2022-10-29T13:36:43.721Z,20
2022-10-29T13:37:24.285Z,20
2022-10-29T13:44:41.677Z,20
2022-10-29T13:45:22.614Z,20
2022-10-29T13:46:03.612Z,20
2022-10-29T13:46:45.649Z,15
2022-10-29T13:48:06.673Z,15
2022-10-29T13:48:47.662Z,15
2022-10-29T13:49:28.644Z,15
2022-10-29T13:50:09.676Z,15
2022-10-29T13:50:50.659Z,15
2022-10-29T13:54:15.899Z,15
2022-10-29T13:54:56.887Z,15
2022-10-29T13:55:37.831Z,15
2022-10-29T13:56:18.826Z,15
2022-10-29T13:56:59.803Z,15
2022-10-29T13:57:40.828Z,15
2022-10-29T14:01:05.911Z,15
2022-10-29T14:01:47.074Z,15
2022-10-29T14:02:27.970Z,15
2022-10-29T14:03:13.770Z,15
2022-10-29T14:03:49.895Z,15
2022-10-29T14:04:30.996Z,15
2022-10-29T14:07:56.480Z,15
2022-10-29T14:08:37.759Z,15
2022-10-29T14:09:18.695Z,15
2022-10-29T14:09:59.698Z,15
2022-10-29T14:10:40.671Z,15
2022-10-29T14:14:46.811Z,15
2022-10-29T14:15:27.924Z,15
2022-10-29T14:16:08.782Z,15
2022-10-29T14:16:49.800Z,15
2022-10-29T14:17:30.887Z,15
2022-10-29T14:20:56.082Z,15
2022-10-29T14:21:37.039Z,15
2022-10-29T14:22:18.146Z,15
2022-10-29T14:22:59.498Z,15
2022-10-29T14:23:40.152Z,10
2022-10-29T14:30:46.074Z,10
2022-10-29T14:31:26.598Z,10
2022-10-29T14:32:07.213Z,10
2022-10-29T14:36:02.693Z,10
2022-10-29T14:36:43.108Z,10
2022-10-29T14:37:23.587Z,10
2022-10-29T14:41:26.560Z,10
2022-10-29T14:42:07.201Z,10
2022-10-29T14:42:47.773Z,10
2022-10-29T14:43:28.214Z,10
2022-10-29T14:44:08.697Z,10
2022-10-29T14:44:49.216Z,10
2022-10-29T14:45:29.715Z,10
2022-10-29T14:46:10.241Z,10
2022-10-29T14:46:50.718Z,10
2022-10-29T14:47:33.183Z,10
2022-10-29T14:54:16.586Z,10
2022-10-29T14:54:57.084Z,5
2022-10-29T14:55:37.581Z,5
2022-10-29T14:56:17.994Z,5
2022-10-29T14:56:58.474Z,5
2022-10-29T14:57:39.003Z,5
2022-10-29T14:58:19.515Z,5
2022-10-29T14:59:00.053Z,5
2022-10-29T15:00:21.029Z,5
2022-10-29T15:07:07.008Z,5
2022-10-29T15:07:47.263Z,5
2022-10-29T15:08:27.862Z,5
2022-10-29T15:09:08.427Z,5
2022-10-29T15:09:48.836Z,5
2022-10-29T15:10:29.336Z,10
2022-10-29T15:11:09.854Z,10
2022-10-29T15:11:50.481Z,10
2022-10-29T15:12:30.872Z,15
2022-10-29T15:13:11.412Z,10
2022-10-29T15:19:16.840Z,5
2022-10-29T15:19:58.039Z,5
2022-10-29T15:22:37.713Z,5
2022-10-29T15:23:18.231Z,5
2022-10-29T15:23:58.684Z,5
2022-10-29T15:28:01.708Z,5
2022-10-29T15:28:42.180Z,5
2022-10-29T15:29:22.853Z,5
2022-10-29T15:30:03.367Z,5
2022-10-29T15:30:43.886Z,5
2022-10-29T15:31:24.272Z,5
2022-10-29T15:32:04.767Z,5
2022-10-29T15:32:45.247Z,5
2022-10-29T15:33:25.721Z,5
2022-10-29T15:34:06.249Z,5
2022-10-29T15:40:51.375Z,0
2022-10-29T15:41:31.884Z,0
2022-10-29T15:42:12.355Z,0
2022-10-29T15:42:52.800Z,0
2022-10-29T15:43:33.311Z,0
2022-10-29T15:44:13.763Z,0
2022-10-29T15:44:54.399Z,0
2022-10-29T15:45:34.825Z,0
2022-10-29T15:50:21.612Z,0
2022-10-29T15:51:02.340Z,0
2022-10-29T15:51:42.901Z,0
2022-10-29T15:52:23.559Z,0
2022-10-29T15:53:04.127Z,0
2022-10-29T15:53:44.845Z,0
2022-10-29T15:54:25.268Z,0
2022-10-29T15:55:05.738Z,0
2022-10-29T15:55:46.228Z,0
2022-10-29T16:00:31.434Z,0
2022-10-29T16:01:12.048Z,0
2022-10-29T16:01:52.396Z,0
2022-10-29T16:02:32.879Z,0
2022-10-29T16:03:13.480Z,0
2022-10-29T16:03:53.984Z,0
2022-10-29T16:04:35.256Z,0
2022-10-29T16:05:15.768Z,0
2022-10-29T16:05:56.234Z,0
2022-10-29T16:12:01.465Z,0
2022-10-29T16:12:41.928Z,0
2022-10-29T16:13:22.401Z,0
2022-10-29T16:17:30.985Z,0
2022-10-29T16:19:49.377Z,0
2022-10-29T16:20:29.788Z,0
2022-10-29T16:21:10.273Z,0
2022-10-29T16:21:51.027Z,0
2022-10-29T16:22:31.443Z,0
2022-10-29T16:23:11.947Z,0
2022-10-29T16:23:52.525Z,0
2022-10-29T16:24:32.913Z,0
2022-10-29T16:25:13.392Z,0
2022-10-29T16:25:53.911Z,0
2022-10-29T16:26:34.371Z,0
2022-10-29T16:27:14.876Z,0
2022-10-29T16:33:19.942Z,0
2022-10-29T16:34:00.433Z,0
2022-10-29T16:34:40.949Z,0
2022-10-29T16:35:21.418Z,0
2022-10-29T16:36:02.037Z,0
2022-10-29T16:36:42.435Z,0
2022-10-29T16:37:23.251Z,0
2022-10-29T16:38:04.805Z,0
2022-10-29T16:43:30.154Z,0
2022-10-29T16:44:10.729Z,0
2022-10-29T16:44:51.349Z,0
2022-10-29T16:45:31.735Z,0
2022-10-29T16:46:12.340Z,0
2022-10-29T16:46:52.734Z,0
2022-10-29T16:47:33.345Z,0
2022-10-29T16:48:14.130Z,0
2022-10-29T16:48:54.686Z,0
2022-10-29T16:51:40.025Z,0
2022-10-29T16:52:22.467Z,0
2022-10-29T16:53:01.377Z,0
2022-10-29T16:53:41.697Z,0
2022-10-29T16:54:22.297Z,0
2022-10-29T16:55:02.812Z,0
2022-10-29T16:55:43.350Z,0
2022-10-29T16:56:24.231Z,0
2022-10-29T16:57:04.691Z,0
2022-10-29T17:03:27.301Z,0
2022-10-29T17:04:07.377Z,0
2022-10-29T17:04:47.904Z,0
2022-10-29T17:05:28.385Z,0
2022-10-29T17:06:08.825Z,0
2022-10-29T17:06:49.358Z,0
2022-10-29T17:07:29.814Z,0
2022-10-29T17:08:10.343Z,0
2022-10-29T17:08:50.901Z,0
2022-10-29T17:09:31.340Z,0
2022-10-29T17:10:11.810Z,0
2022-10-29T17:17:38.205Z,0
2022-10-29T17:18:17.801Z,0
2022-10-29T17:18:58.231Z,0
2022-10-29T17:19:38.720Z,0
2022-10-29T17:20:19.227Z,0
2022-10-29T17:20:59.701Z,0
2022-10-29T17:21:40.215Z,0
2022-10-29T17:22:20.757Z,0
2022-10-29T17:23:01.268Z,0
2022-10-29T17:23:41.758Z,0
2022-10-29T17:29:07.617Z,0
2022-10-29T17:29:48.122Z,0
2022-10-29T17:30:28.633Z,0
2022-10-29T17:31:09.138Z,0
2022-10-29T17:31:49.761Z,0
2022-10-29T17:32:30.182Z,0
2022-10-29T17:33:10.752Z,0
2022-10-29T17:35:51.188Z,0
2022-10-29T17:36:31.943Z,0
2022-10-29T17:37:12.478Z,0
2022-10-29T17:37:53.062Z,0
2022-10-29T17:39:54.694Z,0
2022-10-29T17:40:35.560Z,0
2022-10-29T17:41:15.982Z,0
2022-10-29T17:41:56.493Z,0
2022-10-29T17:42:37.204Z,0
2022-10-29T17:43:17.673Z,0
2022-10-29T17:43:58.258Z,0
2022-10-29T17:52:04.624Z,0
2022-10-29T17:52:45.292Z,0
2022-10-29T18:34:38.270Z,0
2022-10-29T18:35:18.716Z,0
2022-10-29T18:35:59.176Z,0
2022-10-29T18:40:42.673Z,0
2022-10-29T18:41:23.156Z,0
2022-10-29T18:42:03.625Z,0
2022-10-29T18:42:44.103Z,0
2022-10-29T18:43:24.547Z,0
2022-10-29T18:44:05.095Z,0
2022-10-29T18:44:45.591Z,0
2022-10-29T18:45:26.049Z,0
2022-10-29T18:46:06.528Z,0
2022-10-29T18:46:47.009Z,0
2022-10-29T18:54:12.518Z,0
2022-10-29T18:54:53.044Z,0
2022-10-29T18:55:33.580Z,0
2022-10-29T18:56:14.059Z,0
2022-10-29T18:56:54.509Z,0
2022-10-29T18:57:34.956Z,0
2022-10-29T18:58:15.709Z,0
2022-10-29T18:58:56.157Z,0
2022-10-29T18:59:36.675Z,0
2022-10-29T19:00:17.136Z,0
2022-10-29T19:07:42.722Z,0
2022-10-29T19:08:23.227Z,0
2022-10-29T19:09:03.818Z,0
2022-10-29T19:09:44.484Z,0
2022-10-29T19:10:24.811Z,0
2022-10-29T19:11:05.292Z,0
2022-10-29T19:11:45.831Z,0
2022-10-29T19:12:26.278Z,0
2022-10-29T19:13:06.816Z,0
2022-10-29T19:13:47.253Z,0
2022-10-29T19:20:32.467Z,0
2022-10-29T19:21:13.005Z,0
2022-10-29T19:21:53.453Z,0
2022-10-29T19:22:33.934Z,0
2022-10-29T19:23:14.424Z,0
2022-10-29T19:23:54.934Z,0
2022-10-29T19:24:35.394Z,0
2022-10-29T19:25:15.878Z,0
2022-10-29T19:25:56.349Z,0
2022-10-29T19:26:36.878Z,0
2022-10-29T19:27:17.369Z,0
2022-10-29T19:34:02.352Z,0
2022-10-29T19:34:43.532Z,0
2022-10-29T19:35:24.059Z,0
2022-10-29T19:36:04.546Z,0
2022-10-29T19:36:45.028Z,0
2022-10-29T19:37:25.498Z,0
2022-10-29T19:38:05.977Z,0
2022-10-29T19:38:46.455Z,0
2022-10-29T19:39:26.955Z,0
2022-10-29T19:46:52.302Z,0
2022-10-29T19:47:32.732Z,0
2022-10-29T19:48:13.217Z,0
2022-10-29T19:48:53.675Z,0
2022-10-29T19:49:34.204Z,0
2022-10-29T19:50:14.813Z,0
2022-10-29T19:50:55.218Z,0
2022-10-29T19:51:35.720Z,0
2022-10-29T19:52:16.239Z,0
2022-10-29T19:52:56.932Z,0
2022-10-29T19:53:37.203Z,0
2022-10-29T20:00:22.543Z,0
2022-10-29T20:01:04.093Z,0
2022-10-29T20:01:44.556Z,0
2022-10-29T20:02:24.951Z,0
2022-10-29T20:03:05.347Z,0
2022-10-29T20:03:45.920Z,0
2022-10-29T20:04:26.512Z,0
2022-10-29T20:05:06.883Z,0
2022-10-29T20:05:47.350Z,0
2022-10-29T20:11:12.879Z,0
2022-10-29T20:11:53.344Z,0
2022-10-29T20:12:34.622Z,0
2022-10-29T20:13:15.273Z,0
2022-10-29T20:13:55.721Z,0
2022-10-29T20:14:36.193Z,0
2022-10-29T20:15:16.754Z,0
2022-10-29T20:15:57.636Z,0
2022-10-29T20:21:23.360Z,0
2022-10-29T20:22:04.625Z,0
2022-10-29T20:22:44.998Z,0
2022-10-29T20:23:26.104Z,0
2022-10-29T20:24:06.524Z,0
2022-10-29T20:24:47.128Z,0
2022-10-29T20:28:52.391Z,0
2022-10-29T20:29:32.969Z,0
2022-10-29T20:30:13.767Z,0
2022-10-29T20:30:54.350Z,0
2022-10-29T20:31:38.576Z,0
2022-10-29T20:32:15.259Z,0
2022-10-29T20:32:56.003Z,0
2022-10-29T20:33:36.322Z,0
2022-10-29T20:34:16.829Z,0
2022-10-29T20:34:57.250Z,0
2022-10-29T20:39:42.322Z,0
2022-10-29T20:40:22.759Z,0
2022-10-29T20:41:03.260Z,0
2022-10-29T20:41:43.816Z,0
2022-10-29T20:42:24.411Z,0
2022-10-29T20:43:05.120Z,0
2022-10-29T20:43:45.497Z,0
2022-10-29T20:44:25.987Z,0
2022-10-29T20:45:06.465Z,0
2022-10-29T20:45:46.947Z,0
2022-10-29T20:50:43.298Z,0
2022-10-29T20:51:24.138Z,0
2022-10-29T20:52:04.663Z,0
2022-10-29T20:52:48.512Z,0
2022-10-29T20:56:48.078Z,0
2022-10-29T20:57:28.586Z,0
2022-10-29T20:58:09.122Z,0
2022-10-29T20:58:49.640Z,0
2022-10-29T20:59:30.076Z,0
2022-10-29T21:00:10.576Z,0
2022-10-29T21:00:51.121Z,0
2022-10-29T21:01:31.647Z,0
2022-10-29T21:02:12.179Z,0
2022-10-29T21:02:52.602Z,0
2022-10-29T21:09:08.701Z,0
2022-10-29T21:09:49.133Z,0
2022-10-29T21:15:13.046Z,0
2022-10-29T21:15:53.602Z,0
2022-10-29T21:16:34.069Z,0
2022-10-29T21:17:14.536Z,0
2022-10-29T21:17:54.984Z,0
2022-10-29T21:18:35.501Z,0
2022-10-29T21:19:16.064Z,0
2022-10-29T21:19:56.470Z,0
2022-10-29T21:20:37.019Z,0
2022-10-29T21:21:17.492Z,0
2022-10-29T21:28:03.039Z,0
2022-10-29T21:28:43.629Z,0
2022-10-29T21:29:24.259Z,0
2022-10-29T21:30:04.785Z,0
2022-10-29T21:30:45.327Z,0
2022-10-29T21:31:25.881Z,0
2022-10-29T21:32:06.284Z,0
2022-10-29T21:32:46.771Z,0
2022-10-29T21:33:27.309Z,0
2022-10-29T21:34:07.927Z,0
2022-10-29T21:40:52.886Z,0
2022-10-29T21:41:33.385Z,0
2022-10-29T21:42:14.904Z,0
2022-10-29T21:42:55.742Z,0
2022-10-29T21:43:35.896Z,0
2022-10-29T21:44:16.455Z,0
2022-10-29T21:44:56.944Z,0
2022-10-29T21:45:37.421Z,0
2022-10-29T21:48:31.715Z,0
2022-10-29T21:49:12.218Z,0
2022-10-29T21:49:52.711Z,0
2022-10-29T21:53:56.689Z,0
2022-10-29T21:54:37.530Z,0
2022-10-29T21:55:18.154Z,0
2022-10-29T21:55:58.630Z,0
2022-10-29T21:56:39.260Z,0
2022-10-29T21:57:19.791Z,0
2022-10-29T21:58:00.629Z,0
2022-10-29T21:58:41.144Z,0
2022-10-29T22:05:12.487Z,0
2022-10-29T22:05:52.896Z,0
2022-10-29T22:06:33.387Z,0
2022-10-29T22:11:57.529Z,0
2022-10-29T22:12:37.866Z,0